Rotterdam — PDGS — position and weather

sailwx.info

Track history (hours):
 
Tides and Currents Weather Stations Pressure Air Temp Water Temp Dewpoint Dewpoint Depression Visibility Wind Speed Wind Dir Waves Ship Positions

Rotterdam

Operator: Holland America Line

Last reported at 2018-Sep-23 09:26 UTC. Time now 2018-Sep-24 21:05 UTC.
Position N 44°13' W 068°08'.

Length 228 m; beam 29 m.

Type: Ship. MMSI: 24616700.

Date/timePositionNaut miles runAvg speedWind from/ knotsBaromVisibWave heightAir tempDewpointWater temp
2018-Sep-23 09:26N 44°13' W 068°08'812.3
2018-Sep-23 08:47N 44°05' W 068°09'411.8
2018-Sep-23 08:29N 44°01' W 068°10'512.7
2018-Sep-23 08:03N 43°57' W 068°14'112.8
2018-Sep-23 07:59N 43°56' W 068°15'612.6
2018-Sep-23 07:29N 43°51' W 068°20'612.4
2018-Sep-23 07:00N 43°46' W 068°26'612.4
2018-Sep-23 06:30N 43°42' W 068°31'612.1
2018-Sep-23 06:03N 43°37' W 068°36'113.6
2018-Sep-23 05:58N 43°36' W 068°37'6913.7
2018-Sep-23 00:55N 42°54' W 069°52'513.2
2018-Sep-23 00:30N 42°51' W 069°58'613.2
2018-Sep-23 00:03N 42°47' W 070°04'113.1
2018-Sep-23 00:00N 42°47' W 070°05'714.2
2018-Sep-22 23:30N 42°42' W 070°12'716.1
2018-Sep-22 23:03N 42°38' W 070°20'116.2
2018-Sep-22 23:00N 42°38' W 070°21'816.2
2018-Sep-22 22:30N 42°33' W 070°30'716.2
2018-Sep-22 22:03N 42°29' W 070°39'116.2
2018-Sep-22 22:00N 42°29' W 070°40'815.7
2018-Sep-22 21:30N 42°24' W 070°48'612.7
2018-Sep-22 21:04N 42°22' W 070°55'114.5
2018-Sep-22 21:00N 42°21' W 070°56'4 7.7
2018-Sep-22 20:30N 42°21' W 071°01'1 1.7
2018-Sep-22 20:03N 42°21' W 071°02'0 0.1
2018-Sep-22 20:00N 42°21' W 071°02'0 0.0
2018-Sep-22 19:30N 42°21' W 071°02'0 0.0
2018-Sep-22 19:03N 42°21' W 071°02'0 0.1
2018-Sep-22 19:00N 42°21' W 071°02'0 0.0
2018-Sep-22 18:30N 42°21' W 071°02'0 0.0
2018-Sep-22 18:03N 42°21' W 071°02'0 0.1
2018-Sep-22 18:00N 42°21' W 071°02'0 0.0
2018-Sep-22 17:30N 42°21' W 071°02'0 0.0
2018-Sep-22 17:03N 42°21' W 071°02'0 0.1
2018-Sep-22 17:00N 42°21' W 071°02'0 0.0
2018-Sep-22 16:30N 42°21' W 071°02'0 0.0
2018-Sep-22 16:03N 42°21' W 071°02'0 0.0
2018-Sep-22 16:00N 42°21' W 071°02'0 0.0
2018-Sep-22 15:30N 42°21' W 071°02'0 0.0
2018-Sep-22 15:03N 42°21' W 071°02'0 0.1
2018-Sep-22 15:00N 42°21' W 071°02'0 0.0
2018-Sep-22 14:30N 42°21' W 071°02'0 0.0
2018-Sep-22 14:00N 42°21' W 071°02'0 0.0
2018-Sep-22 13:30N 42°21' W 071°02'0 0.0
2018-Sep-22 13:03N 42°21' W 071°02'0 0.2
2018-Sep-22 13:00N 42°21' W 071°02'0 0.0
2018-Sep-22 12:30N 42°21' W 071°02'0 0.0
2018-Sep-22 12:03N 42°21' W 071°02'0 0.0
2018-Sep-22 12:00N 42°21' W 071°02'0 0.0
2018-Sep-22 11:30N 42°21' W 071°02'0 0.0
2018-Sep-22 11:03N 42°21' W 071°02'0 0.1
2018-Sep-22 11:00N 42°21' W 071°02'0 0.0
2018-Sep-22 10:31N 42°21' W 071°02'2 3.7
2018-Sep-22 10:04N 42°20' W 070°60'0 8.8
2018-Sep-22 10:00N 42°20' W 070°59'510.9
2018-Sep-22 09:30N 42°23' W 070°53'511.7
2018-Sep-22 09:03N 42°25' W 070°46'113.8
2018-Sep-22 09:00N 42°25' W 070°46'612.7
2018-Sep-22 08:30N 42°29' W 070°39'612.5
2018-Sep-22 08:04N 42°32' W 070°32'112.5
2018-Sep-22 08:00N 42°32' W 070°31'612.4
2018-Sep-22 07:29N 42°36' W 070°24'512.5
2018-Sep-22 07:04N 42°39' W 070°19'112.8
2018-Sep-22 07:01N 42°39' W 070°18'713.0
2018-Sep-22 06:31N 42°43' W 070°11'713.3
2018-Sep-22 05:58N 42°48' W 070°03'  
2018-Sep-16 21:02N 46°50' W 071°08'014.9
2018-Sep-16 21:00N 46°50' W 071°09'2 4.7
2018-Sep-16 20:30N 46°49' W 071°12'0 0.0
2018-Sep-16 19:56N 46°49' W 071°12'0 0.0
2018-Sep-16 19:11N 46°49' W 071°12'0 0.0
2018-Sep-16 18:59N 46°49' W 071°12'0 0.0
2018-Sep-16 18:17N 46°49' W 071°12'0 0.0
2018-Sep-16 16:32N 46°49' W 071°12'0 0.0
2018-Sep-16 16:29N 46°49' W 071°12'0 0.0
2018-Sep-16 12:47N 46°49' W 071°12'0 0.0
2018-Sep-16 12:20N 46°49' W 071°12'0 0.0
2018-Sep-16 11:44N 46°49' W 071°12'0 0.0
2018-Sep-16 11:29N 46°49' W 071°12'0 0.0
2018-Sep-16 10:50N 46°49' W 071°12'0 0.2
2018-Sep-16 10:30N 46°49' W 071°12'82 8.9
2018-Sep-16 01:17N 46°09' W 072°57'311.0
2018-Sep-16 01:02N 46°07' W 072°58'111.7
2018-Sep-16 01:00N 46°06' W 072°58'510.8
2018-Sep-16 00:30N 46°04' W 073°05'4 9.9
2018-Sep-16 00:03N 46°01' W 073°10'111.1
2018-Sep-16 00:00N 46°01' W 073°10'5 9.3
2018-Sep-15 23:30N 45°56' W 073°13'410.0
2018-Sep-15 23:03N 45°52' W 073°15'010.0
2018-Sep-15 23:01N 45°52' W 073°16'510.2
2018-Sep-15 22:31N 45°48' W 073°20'510.3
2018-Sep-15 22:03N 45°44' W 073°25'110.5
2018-Sep-15 22:00N 45°44' W 073°25'13 1.1
2018-Sep-15 09:55N 45°31' W 073°33'5 8.9
2018-Sep-15 09:21N 45°36' W 073°30'4 8.9
2018-Sep-15 08:57N 45°39' W 073°28'510.3
2018-Sep-15 08:30N 45°44' W 073°25'510.5
2018-Sep-15 08:04N 45°47' W 073°21'110.4
2018-Sep-15 08:00N 45°48' W 073°20'510.6
2018-Sep-15 07:30N 45°52' W 073°16'510.4
2018-Sep-15 07:03N 45°56' W 073°13'113.2
2018-Sep-15 07:00N 45°57' W 073°13'611.1
2018-Sep-15 06:30N 46°02' W 073°10'4 9.1
2018-Sep-15 06:03N 46°04' W 073°05'110.7
2018-Sep-15 06:00N 46°04' W 073°04'8910.5
2018-Sep-14 21:32N 46°48' W 071°12'0 8.8
2018-Sep-14 21:30N 46°48' W 071°12'1 1.1
2018-Sep-14 20:58N 46°49' W 071°12'0 0.0
2018-Sep-14 20:28N 46°49' W 071°12'0 0.0
2018-Sep-14 20:04N 46°49' W 071°12'0 0.0
2018-Sep-14 19:57N 46°49' W 071°12'0 0.0
2018-Sep-14 16:30N 46°49' W 071°12'0 0.0
2018-Sep-14 16:03N 46°49' W 071°12'0 0.0
2018-Sep-14 16:00N 46°49' W 071°12'0 0.0
2018-Sep-14 13:51N 46°49' W 071°12'0 0.0
2018-Sep-14 11:06N 46°49' W 071°12'0 0.0
2018-Sep-14 11:00N 46°49' W 071°12'1 2.6
2018-Sep-14 10:27N 46°50' W 071°11'  
Track history (hours):
 
Tides and Currents Weather Stations Pressure Air Temp Water Temp Dewpoint Dewpoint Depression Visibility Wind Speed Wind Dir Waves Ship Positions

Rotterdam

Operator: Holland America Line

Last reported at 2018-Sep-23 09:26 UTC. Time now 2018-Sep-24 21:05 UTC.
Position N 44°13' W 068°08'.

Length 228 m; beam 29 m.

Type: Ship. MMSI: 24616700.

Date/timePositionNaut miles runAvg speedWind from/ knotsBaromVisibWave heightAir tempDewpointWater temp
2018-Sep-23 09:26N 44°13' W 068°08'812.3
2018-Sep-23 08:47N 44°05' W 068°09'411.8
2018-Sep-23 08:29N 44°01' W 068°10'512.7
2018-Sep-23 08:03N 43°57' W 068°14'112.8
2018-Sep-23 07:59N 43°56' W 068°15'612.6
2018-Sep-23 07:29N 43°51' W 068°20'612.4
2018-Sep-23 07:00N 43°46' W 068°26'612.4
2018-Sep-23 06:30N 43°42' W 068°31'612.1
2018-Sep-23 06:03N 43°37' W 068°36'113.6
2018-Sep-23 05:58N 43°36' W 068°37'6913.7
2018-Sep-23 00:55N 42°54' W 069°52'513.2
2018-Sep-23 00:30N 42°51' W 069°58'613.2
2018-Sep-23 00:03N 42°47' W 070°04'113.1
2018-Sep-23 00:00N 42°47' W 070°05'714.2
2018-Sep-22 23:30N 42°42' W 070°12'716.1
2018-Sep-22 23:03N 42°38' W 070°20'116.2
2018-Sep-22 23:00N 42°38' W 070°21'816.2
2018-Sep-22 22:30N 42°33' W 070°30'716.2
2018-Sep-22 22:03N 42°29' W 070°39'116.2
2018-Sep-22 22:00N 42°29' W 070°40'815.7
2018-Sep-22 21:30N 42°24' W 070°48'612.7
2018-Sep-22 21:04N 42°22' W 070°55'114.5
2018-Sep-22 21:00N 42°21' W 070°56'4 7.7
2018-Sep-22 20:30N 42°21' W 071°01'1 1.7
2018-Sep-22 20:03N 42°21' W 071°02'0 0.1
2018-Sep-22 20:00N 42°21' W 071°02'0 0.0
2018-Sep-22 19:30N 42°21' W 071°02'0 0.0
2018-Sep-22 19:03N 42°21' W 071°02'0 0.1
2018-Sep-22 19:00N 42°21' W 071°02'0 0.0
2018-Sep-22 18:30N 42°21' W 071°02'0 0.0
2018-Sep-22 18:03N 42°21' W 071°02'0 0.1
2018-Sep-22 18:00N 42°21' W 071°02'0 0.0
2018-Sep-22 17:30N 42°21' W 071°02'0 0.0
2018-Sep-22 17:03N 42°21' W 071°02'0 0.1
2018-Sep-22 17:00N 42°21' W 071°02'0 0.0
2018-Sep-22 16:30N 42°21' W 071°02'0 0.0
2018-Sep-22 16:03N 42°21' W 071°02'0 0.0
2018-Sep-22 16:00N 42°21' W 071°02'0 0.0
2018-Sep-22 15:30N 42°21' W 071°02'0 0.0
2018-Sep-22 15:03N 42°21' W 071°02'0 0.1
2018-Sep-22 15:00N 42°21' W 071°02'0 0.0
2018-Sep-22 14:30N 42°21' W 071°02'0 0.0
2018-Sep-22 14:00N 42°21' W 071°02'0 0.0
2018-Sep-22 13:30N 42°21' W 071°02'0 0.0
2018-Sep-22 13:03N 42°21' W 071°02'0 0.2
2018-Sep-22 13:00N 42°21' W 071°02'0 0.0
2018-Sep-22 12:30N 42°21' W 071°02'0 0.0
2018-Sep-22 12:03N 42°21' W 071°02'0 0.0
2018-Sep-22 12:00N 42°21' W 071°02'0 0.0
2018-Sep-22 11:30N 42°21' W 071°02'0 0.0
2018-Sep-22 11:03N 42°21' W 071°02'0 0.1
2018-Sep-22 11:00N 42°21' W 071°02'0 0.0
2018-Sep-22 10:31N 42°21' W 071°02'2 3.7
2018-Sep-22 10:04N 42°20' W 070°60'0 8.8
2018-Sep-22 10:00N 42°20' W 070°59'510.9
2018-Sep-22 09:30N 42°23' W 070°53'511.7
2018-Sep-22 09:03N 42°25' W 070°46'113.8
2018-Sep-22 09:00N 42°25' W 070°46'612.7
2018-Sep-22 08:30N 42°29' W 070°39'612.5
2018-Sep-22 08:04N 42°32' W 070°32'112.5
2018-Sep-22 08:00N 42°32' W 070°31'612.4
2018-Sep-22 07:29N 42°36' W 070°24'512.5
2018-Sep-22 07:04N 42°39' W 070°19'112.8
2018-Sep-22 07:01N 42°39' W 070°18'713.0
2018-Sep-22 06:31N 42°43' W 070°11'713.3
2018-Sep-22 05:58N 42°48' W 070°03'  
2018-Sep-16 21:02N 46°50' W 071°08'014.9
2018-Sep-16 21:00N 46°50' W 071°09'2 4.7
2018-Sep-16 20:30N 46°49' W 071°12'0 0.0
2018-Sep-16 19:56N 46°49' W 071°12'0 0.0
2018-Sep-16 19:11N 46°49' W 071°12'0 0.0
2018-Sep-16 18:59N 46°49' W 071°12'0 0.0
2018-Sep-16 18:17N 46°49' W 071°12'0 0.0
2018-Sep-16 16:32N 46°49' W 071°12'0 0.0
2018-Sep-16 16:29N 46°49' W 071°12'0 0.0
2018-Sep-16 12:47N 46°49' W 071°12'0 0.0
2018-Sep-16 12:20N 46°49' W 071°12'0 0.0
2018-Sep-16 11:44N 46°49' W 071°12'0 0.0
2018-Sep-16 11:29N 46°49' W 071°12'0 0.0
2018-Sep-16 10:50N 46°49' W 071°12'0 0.2
2018-Sep-16 10:30N 46°49' W 071°12'82 8.9
2018-Sep-16 01:17N 46°09' W 072°57'311.0
2018-Sep-16 01:02N 46°07' W 072°58'111.7
2018-Sep-16 01:00N 46°06' W 072°58'510.8
2018-Sep-16 00:30N 46°04' W 073°05'4 9.9
2018-Sep-16 00:03N 46°01' W 073°10'111.1
2018-Sep-16 00:00N 46°01' W 073°10'5 9.3
2018-Sep-15 23:30N 45°56' W 073°13'410.0
2018-Sep-15 23:03N 45°52' W 073°15'010.0
2018-Sep-15 23:01N 45°52' W 073°16'510.2
2018-Sep-15 22:31N 45°48' W 073°20'510.3
2018-Sep-15 22:03N 45°44' W 073°25'110.5
2018-Sep-15 22:00N 45°44' W 073°25'13 1.1
2018-Sep-15 09:55N 45°31' W 073°33'5 8.9
2018-Sep-15 09:21N 45°36' W 073°30'4 8.9
2018-Sep-15 08:57N 45°39' W 073°28'510.3
2018-Sep-15 08:30N 45°44' W 073°25'510.5
2018-Sep-15 08:04N 45°47' W 073°21'110.4
2018-Sep-15 08:00N 45°48' W 073°20'510.6
2018-Sep-15 07:30N 45°52' W 073°16'510.4
2018-Sep-15 07:03N 45°56' W 073°13'113.2
2018-Sep-15 07:00N 45°57' W 073°13'611.1
2018-Sep-15 06:30N 46°02' W 073°10'4 9.1
2018-Sep-15 06:03N 46°04' W 073°05'110.7
2018-Sep-15 06:00N 46°04' W 073°04'8910.5
2018-Sep-14 21:32N 46°48' W 071°12'0 8.8
2018-Sep-14 21:30N 46°48' W 071°12'1 1.1
2018-Sep-14 20:58N 46°49' W 071°12'0 0.0
2018-Sep-14 20:28N 46°49' W 071°12'0 0.0
2018-Sep-14 20:04N 46°49' W 071°12'0 0.0
2018-Sep-14 19:57N 46°49' W 071°12'0 0.0
2018-Sep-14 16:30N 46°49' W 071°12'0 0.0
2018-Sep-14 16:03N 46°49' W 071°12'0 0.0
2018-Sep-14 16:00N 46°49' W 071°12'0 0.0
2018-Sep-14 13:51N 46°49' W 071°12'0 0.0
2018-Sep-14 11:06N 46°49' W 071°12'0 0.0
2018-Sep-14 11:00N 46°49' W 071°12'1 2.6
2018-Sep-14 10:27N 46°50' W 071°11'  

Dump ship's entire track history